Eland, WI

8:54 PM CST on December 21, 2014 (GMT -0600)
Central Wisconsin | Change Station
CLOSE
Current Station
Airport
Location: Mosinee,
Elevation: 1276 ft
Nearby Weather Stations
Active Advisory: Special Statement

Elev 1276 ft 44.78 °N, 89.67 °W | Updated 1 hour ago

Overcast
Overcast
34 °F
Feels Like 23 °F
N
18
Wind Variable Wind from SSE

Today
High -- | Low -- °F
--% Chance of Precip.
Yesterday
High -- | Low -- °F
Precip. -- in
7:31 AM 4:18 PM
New Moon, 0% visible
Pressure 29.89 in
Visibility 2.0 miles
Clouds Overcast 400 ft
Windchill 23 °F
Dew Point 34 °F
Humidity 100%
Rainfall 0.00 in
Snow Depth Not available.
UV 0 out of 12
Pollen .10 out of 12
Air Quality Not available.
Flu Activity Not available.
METAR KCWA 220145Z 16016KT 2SM BR OVC004 01/01 A2989

More Conditions Fewer Conditions

Pressure 29.89 in
Visibility 2.0 miles
Clouds Overcast 400 ft
Windchill 23 °F
Dew Point 34 °F
Humidity 100%
Rainfall 0.00 in
Snow Depth Not available.
UV 0 out of 12
Pollen .10 out of 12
Air Quality Not available.
Flu Activity Not available.
METAR KCWA 220145Z 16016KT 2SM BR OVC004 01/01 A2989

More Conditions Fewer Conditions

10-Day Weather Forecast

Almanac

Astronomy

Dec. 21, 2014 Rise Set
Actual Time
Civil Twilight
Nautical Twilight
Astronomical Twilight
Moon
Length of Visible Light
Length of Day
Tomorrow will be .
, % of the Moon is Illuminated

Today's Extremes

State Highs State Lows

Community

WunderPhotos

Upload Photos

1,779,528 photos uploaded!

WunderBlogs® & News

Nearby

Air Quality

  Air Quality AQ Index Pollutant
Not available.

Snow Depth

Station Depth Elevation

Earthquake Activity

City Distance Mag. Time & Date
Minimum magnitude displayed is 2.5.

Coastal Water Temperatures

Place Temperature

Nearby Weather Stations